Terminal Aerodrome Forecast
Issued by NWS

Home | Current Version | Previous Version | Text Only | Print | Product List | Glossary On
Versions: 1 2 3 4 5 6 7 8 9 10 11 12 13
000
FTAK31 PAFA 181009 AAA
TAFABT
TAF AMD
PABT 181009Z 1810/1906 00000KT 4SM BR SCT001
     FM181200 VRB03KT 2SM BR SCT002
     FM182100 VRB03KT 5SM BR SCT002=

USA.gov is the U.S. government's official web portal to all federal, state and local government web resources and services.